createdAt,value
2023-02-28T00:00:19.937Z,25.42
2023-02-28T00:03:23.172Z,23.80
2023-02-28T00:06:26.606Z,25.65
2023-02-28T00:09:31.032Z,30.27
2023-02-28T00:12:36.770Z,27.63
2023-02-28T00:15:40.023Z,31.05
2023-02-28T00:18:44.274Z,33.10
2023-02-28T00:21:47.441Z,36.05
2023-02-28T00:24:50.767Z,35.33
2023-02-28T00:27:55.573Z,32.83
2023-02-28T00:31:00.963Z,33.90
2023-02-28T00:34:04.220Z,38.83
2023-02-28T00:37:09.475Z,37.75
2023-02-28T00:40:13.668Z,42.17
2023-02-28T00:43:18.388Z,39.25
2023-02-28T00:46:21.835Z,42.83
2023-02-28T00:49:25.339Z,43.88
2023-02-28T00:52:28.607Z,43.92
2023-02-28T00:55:31.932Z,48.53
2023-02-28T00:58:36.492Z,49.63
2023-02-28T01:01:40.115Z,54.00
2023-02-28T01:04:43.577Z,51.67
2023-02-28T01:07:46.748Z,42.25
2023-02-28T01:10:51.032Z,50.83
2023-02-28T01:13:55.914Z,43.00
2023-02-28T01:16:59.091Z,42.95
2023-02-28T01:20:02.327Z,46.40
2023-02-28T01:23:05.487Z,43.90
2023-02-28T01:26:12.902Z,42.08
2023-02-28T01:29:18.063Z,42.58
2023-02-28T01:32:22.414Z,45.00
2023-02-28T01:35:27.181Z,42.28
2023-02-28T01:38:31.859Z,42.70
2023-02-28T01:41:36.427Z,47.85
2023-02-28T01:45:18.895Z,47.28
2023-02-28T01:48:28.330Z,43.45
2023-02-28T01:51:36.701Z,43.00
2023-02-28T01:54:41.209Z,42.70
2023-02-28T01:57:49.278Z,44.15
2023-02-28T02:00:54.301Z,47.67
2023-02-28T02:04:00.491Z,49.78
2023-02-28T02:07:05.833Z,79.28
2023-02-28T02:10:16.126Z,65.82
2023-02-28T02:13:48.562Z,112.05
2023-02-28T02:17:07.688Z,103.40
2023-02-28T02:21:00.885Z,69.90
2023-02-28T02:24:42.504Z,64.60
2023-02-28T02:28:20.473Z,56.67
2023-02-28T02:31:55.790Z,60.05
2023-02-28T02:35:07.345Z,52.00
2023-02-28T02:38:16.315Z,53.83
2023-02-28T02:41:26.723Z,45.63
2023-02-28T02:44:36.530Z,45.35
2023-02-28T02:47:40.787Z,41.67
2023-02-28T02:50:48.949Z,46.08
2023-02-28T02:53:59.284Z,40.33
2023-02-28T02:57:07.316Z,40.97
2023-02-28T03:00:12.604Z,43.35
2023-02-28T03:03:21.718Z,45.10
2023-02-28T03:06:26.511Z,52.58
2023-02-28T03:09:30.110Z,53.70
2023-02-28T03:12:42.920Z,55.55
2023-02-28T03:15:58.627Z,53.45
2023-02-28T03:19:18.166Z,53.75
2023-02-28T03:22:38.408Z,52.10
2023-02-28T03:25:53.742Z,48.28
2023-02-28T03:29:06.300Z,48.53
2023-02-28T03:32:22.466Z,47.33
2023-02-28T03:35:28.441Z,50.33
2023-02-28T03:38:37.908Z,45.20
2023-02-28T03:41:45.590Z,46.55
2023-02-28T03:44:53.072Z,44.75
2023-02-28T03:47:59.643Z,48.08
2023-02-28T03:51:05.355Z,44.97
2023-02-28T03:54:15.782Z,44.38
2023-02-28T03:57:27.033Z,46.67
2023-02-28T04:00:33.798Z,41.00
2023-02-28T04:03:37.981Z,43.08
2023-02-28T04:06:41.977Z,40.50
2023-02-28T04:09:46.680Z,42.67
2023-02-28T04:12:49.788Z,45.72
2023-02-28T04:15:52.947Z,49.08
2023-02-28T04:19:03.141Z,42.25
2023-02-28T04:22:06.344Z,47.67
2023-02-28T04:25:11.121Z,51.28
2023-02-28T04:28:14.289Z,46.03
2023-02-28T04:31:17.484Z,48.60
2023-02-28T04:34:22.073Z,55.95
2023-02-28T04:37:29.653Z,56.80
2023-02-28T04:40:34.184Z,57.63
2023-02-28T04:43:37.933Z,56.97
2023-02-28T04:46:41.414Z,55.00
2023-02-28T04:49:44.551Z,63.55
2023-02-28T04:52:47.715Z,56.88
2023-02-28T04:55:52.554Z,52.58
2023-02-28T04:58:55.760Z,54.78
2023-02-28T05:01:58.977Z,60.13
2023-02-28T05:05:02.142Z,57.28
2023-02-28T05:08:06.275Z,52.63
2023-02-28T05:11:19.007Z,50.83
2023-02-28T05:14:22.281Z,53.88
2023-02-28T05:17:25.520Z,47.08
2023-02-28T05:20:28.664Z,46.63
2023-02-28T05:23:31.882Z,49.15
2023-02-28T05:26:38.893Z,54.35
2023-02-28T05:29:44.251Z,52.17
2023-02-28T05:32:52.905Z,57.30
2023-02-28T05:35:56.087Z,52.70
2023-02-28T05:38:59.404Z,54.33
2023-02-28T05:42:03.984Z,62.50
2023-02-28T05:45:09.003Z,55.40
2023-02-28T05:48:12.231Z,60.47
2023-02-28T05:51:15.382Z,64.15
2023-02-28T05:54:18.649Z,66.40
2023-02-28T05:57:24.882Z,69.78
2023-02-28T06:00:28.762Z,77.65
2023-02-28T06:03:32.031Z,75.55
2023-02-28T06:06:37.316Z,86.28
2023-02-28T06:09:40.549Z,89.97
2023-02-28T06:12:45.068Z,93.53
2023-02-28T06:15:48.176Z,104.45
2023-02-28T06:18:51.644Z,110.53
2023-02-28T06:21:55.294Z,110.57
2023-02-28T06:24:58.675Z,115.65
2023-02-28T06:28:03.271Z,85.78
2023-02-28T06:31:13.204Z,99.38
2023-02-28T06:34:16.808Z,83.03
2023-02-28T06:37:20.512Z,80.10
2023-02-28T06:40:23.680Z,79.85
2023-02-28T06:43:30.565Z,64.53
2023-02-28T06:46:34.223Z,66.43
2023-02-28T06:49:38.162Z,64.20
2023-02-28T06:52:41.558Z,62.83
2023-02-28T06:55:44.810Z,53.90
2023-02-28T06:58:50.458Z,52.72
2023-02-28T07:01:53.880Z,46.65
2023-02-28T07:04:57.150Z,44.53
2023-02-28T07:08:00.337Z,49.35
2023-02-28T07:11:04.268Z,42.90
2023-02-28T07:14:09.330Z,42.05
2023-02-28T07:17:13.272Z,38.63
2023-02-28T07:20:16.569Z,45.40
2023-02-28T07:23:20.048Z,40.13
2023-02-28T07:26:23.257Z,36.75
2023-02-28T07:29:28.156Z,30.90
2023-02-28T07:32:31.547Z,26.88
2023-02-28T07:35:34.902Z,28.75
2023-02-28T07:38:38.810Z,27.38
2023-02-28T07:41:44.462Z,28.08
2023-02-28T07:44:49.121Z,24.10
2023-02-28T07:47:52.275Z,27.67
2023-02-28T07:50:57.437Z,26.55
2023-02-28T07:54:00.746Z,28.25
2023-02-28T07:57:04.312Z,23.13
2023-02-28T08:00:13.672Z,22.80
2023-02-28T08:03:20.847Z,22.85
2023-02-28T08:06:25.560Z,25.98
2023-02-28T08:09:28.688Z,17.13
2023-02-28T08:12:31.829Z,19.13
2023-02-28T08:15:37.275Z,22.15
2023-02-28T08:18:40.454Z,24.60
2023-02-28T08:21:43.655Z,23.52
2023-02-28T08:24:46.974Z,21.83
2023-02-28T08:27:52.268Z,26.38
2023-02-28T08:30:57.428Z,31.60
2023-02-28T08:34:00.842Z,23.60
2023-02-28T08:37:04.049Z,22.73
2023-02-28T08:40:08.606Z,22.63
2023-02-28T08:43:11.786Z,22.80
2023-02-28T08:46:16.578Z,23.25
2023-02-28T08:49:19.818Z,18.45
2023-02-28T08:52:22.981Z,20.35
2023-02-28T08:55:26.199Z,18.77
2023-02-28T08:58:29.433Z,17.30
2023-02-28T09:01:34.323Z,17.90
2023-02-28T09:04:37.624Z,20.40
2023-02-28T09:07:40.791Z,24.45
2023-02-28T09:10:43.919Z,18.23
2023-02-28T09:13:47.859Z,24.50
2023-02-28T09:16:52.742Z,20.00
2023-02-28T09:19:55.939Z,22.13
2023-02-28T09:22:59.153Z,25.38
2023-02-28T09:26:02.737Z,24.25
2023-02-28T09:29:05.959Z,17.50
2023-02-28T09:32:10.624Z,20.45
2023-02-28T09:35:17.245Z,17.75
2023-02-28T09:38:20.732Z,20.42
2023-02-28T09:41:26.477Z,20.90
2023-02-28T09:44:33.628Z,19.58
2023-02-28T09:47:42.992Z,19.38
2023-02-28T09:50:50.465Z,17.48
2023-02-28T09:54:01.447Z,23.98
2023-02-28T09:57:10.838Z,22.83
2023-02-28T10:00:20.182Z,21.00
2023-02-28T10:03:38.192Z,22.75
2023-02-28T10:06:46.258Z,17.17
2023-02-28T10:09:54.197Z,21.98
2023-02-28T10:13:01.181Z,19.02
2023-02-28T10:16:08.443Z,22.42
2023-02-28T10:19:19.018Z,21.95
2023-02-28T10:22:28.060Z,17.90
2023-02-28T10:25:32.291Z,20.02
2023-02-28T10:28:35.446Z,23.67
2023-02-28T10:31:38.838Z,20.35
2023-02-28T10:34:43.553Z,21.17
2023-02-28T10:37:48.583Z,22.67
2023-02-28T10:40:52.754Z,20.90
2023-02-28T10:44:14.946Z,21.98
2023-02-28T10:47:19.881Z,19.05
2023-02-28T10:50:35.091Z,22.25
2023-02-28T10:54:00.138Z,20.40
2023-02-28T10:57:25.498Z,21.52
2023-02-28T11:00:35.242Z,26.60
2023-02-28T11:03:38.416Z,22.65
2023-02-28T11:06:42.957Z,21.48
2023-02-28T11:09:50.323Z,20.88
2023-02-28T11:12:59.733Z,18.88
2023-02-28T11:16:07.573Z,22.10
2023-02-28T11:19:22.465Z,21.63
2023-02-28T11:22:30.568Z,21.30
2023-02-28T11:25:36.748Z,22.38
2023-02-28T11:28:42.285Z,22.45
2023-02-28T11:31:45.602Z,23.42
2023-02-28T11:35:03.758Z,20.10
2023-02-28T11:38:14.377Z,20.08
2023-02-28T11:41:40.220Z,22.17
2023-02-28T11:45:12.272Z,22.70
2023-02-28T11:48:23.111Z,21.70
2023-02-28T11:51:32.320Z,23.73
2023-02-28T11:55:13.561Z,23.92
2023-02-28T11:58:32.496Z,21.83
2023-02-28T12:01:48.896Z,22.95
2023-02-28T12:04:59.638Z,21.48
2023-02-28T12:08:17.804Z,23.00
2023-02-28T12:11:35.959Z,23.13
2023-02-28T12:15:01.722Z,24.38
2023-02-28T12:18:26.218Z,23.10
2023-02-28T12:21:41.704Z,20.90
2023-02-28T12:25:26.197Z,25.40
2023-02-28T12:28:35.557Z,26.02
2023-02-28T12:31:43.138Z,24.75
2023-02-28T12:34:50.024Z,28.63
2023-02-28T12:37:59.268Z,28.10
2023-02-28T12:41:04.491Z,25.80
2023-02-28T12:44:14.579Z,25.85
2023-02-28T12:47:19.912Z,22.25
2023-02-28T12:50:23.957Z,23.25
2023-02-28T12:53:33.226Z,24.60
2023-02-28T12:56:45.991Z,24.02
2023-02-28T12:59:53.390Z,22.88
2023-02-28T13:03:23.242Z,25.27
2023-02-28T13:06:52.806Z,26.05
2023-02-28T13:09:58.404Z,23.20
2023-02-28T13:13:05.968Z,25.63
2023-02-28T13:16:12.825Z,25.58
2023-02-28T13:19:21.053Z,25.02
2023-02-28T13:22:41.734Z,25.75
2023-02-28T13:25:55.651Z,24.60
2023-02-28T13:29:05.447Z,21.90
2023-02-28T13:32:33.978Z,17.17
2023-02-28T13:35:39.809Z,23.65
2023-02-28T13:38:44.582Z,22.27
2023-02-28T13:41:49.706Z,22.70
2023-02-28T13:45:25.425Z,21.67
2023-02-28T13:48:32.099Z,24.63
2023-02-28T13:51:42.852Z,19.05
2023-02-28T13:55:00.566Z,22.65
2023-02-28T13:58:20.382Z,20.40
2023-02-28T14:01:34.218Z,21.63
2023-02-28T14:04:59.614Z,22.63
2023-02-28T14:08:08.577Z,24.70
2023-02-28T14:11:29.585Z,23.80
2023-02-28T14:14:58.463Z,58.05
2023-02-28T14:18:03.582Z,52.17
2023-02-28T14:21:18.517Z,27.58
2023-02-28T14:24:53.144Z,25.77
2023-02-28T14:28:07.861Z,21.75
2023-02-28T14:31:15.664Z,22.75
2023-02-28T14:34:39.465Z,21.85
2023-02-28T14:37:44.849Z,24.95
2023-02-28T14:40:49.837Z,26.27
2023-02-28T14:43:59.129Z,28.02
2023-02-28T14:47:07.086Z,50.42
2023-02-28T14:50:21.576Z,41.70
2023-02-28T14:53:30.185Z,33.63
2023-02-28T14:56:37.750Z,30.50
2023-02-28T14:59:40.997Z,29.73
2023-02-28T15:02:44.764Z,24.30
2023-02-28T15:05:55.136Z,24.20
2023-02-28T15:09:18.207Z,26.65
2023-02-28T15:12:21.922Z,28.20
2023-02-28T15:15:35.923Z,34.22
2023-02-28T15:18:49.213Z,31.70
2023-02-28T15:21:56.675Z,31.40
2023-02-28T15:25:01.624Z,31.50
2023-02-28T15:28:05.050Z,34.42
2023-02-28T15:31:23.813Z,31.35
2023-02-28T15:34:42.297Z,32.53
2023-02-28T15:37:49.745Z,31.92
2023-02-28T15:40:56.072Z,34.72
2023-02-28T15:44:55.960Z,35.13
2023-02-28T15:48:12.167Z,185.80
2023-02-28T15:51:20.643Z,76.20
2023-02-28T15:54:28.404Z,51.75
2023-02-28T15:57:33.674Z,47.28
2023-02-28T16:00:36.854Z,43.47
2023-02-28T16:03:44.926Z,45.60
2023-02-28T16:06:50.158Z,143.70
2023-02-28T16:09:53.876Z,113.70
2023-02-28T16:12:59.613Z,107.75
2023-02-28T16:16:03.353Z,90.63
2023-02-28T16:19:06.879Z,84.20
2023-02-28T16:22:11.822Z,96.97
2023-02-28T16:25:16.316Z,112.55
2023-02-28T16:28:24.595Z,100.00
2023-02-28T16:31:28.231Z,149.32
2023-02-28T16:34:31.915Z,151.60
2023-02-28T16:37:35.504Z,145.32
2023-02-28T16:40:39.482Z,138.90
2023-02-28T16:43:45.713Z,124.65
2023-02-28T16:46:49.603Z,121.82
2023-02-28T16:49:53.051Z,119.22
2023-02-28T16:52:56.771Z,116.10
2023-02-28T16:56:02.872Z,109.45
2023-02-28T16:59:07.632Z,109.15
2023-02-28T17:02:14.262Z,119.38
2023-02-28T17:05:18.308Z,139.77
2023-02-28T17:08:22.408Z,124.10
2023-02-28T17:11:26.940Z,160.52
2023-02-28T17:14:32.168Z,171.23
2023-02-28T17:17:35.955Z,229.60
2023-02-28T17:20:39.318Z,214.32
2023-02-28T17:23:42.664Z,224.73
2023-02-28T17:26:46.068Z,204.85
2023-02-28T17:29:51.156Z,202.10
2023-02-28T17:32:55.311Z,204.48
2023-02-28T17:35:58.978Z,222.93
2023-02-28T17:39:04.004Z,199.88
2023-02-28T17:42:08.641Z,214.82
2023-02-28T17:45:14.578Z,286.95
2023-02-28T17:48:17.977Z,318.75
2023-02-28T17:51:23.312Z,321.85
2023-02-28T17:54:26.979Z,327.10
2023-02-28T17:57:30.664Z,347.83
2023-02-28T18:00:35.620Z,316.33
2023-02-28T18:03:39.088Z,366.33
2023-02-28T18:06:48.739Z,438.77
2023-02-28T18:09:52.126Z,241.73
2023-02-28T18:12:55.845Z,305.90
2023-02-28T18:16:00.542Z,309.75
2023-02-28T18:19:04.179Z,319.77
2023-02-28T18:22:08.805Z,352.35
2023-02-28T18:25:14.751Z,372.73
2023-02-28T18:28:17.973Z,395.20
2023-02-28T18:31:22.643Z,378.80
2023-02-28T18:34:26.668Z,405.42
2023-02-28T18:37:30.481Z,394.98
2023-02-28T18:40:34.183Z,452.90
2023-02-28T18:43:39.644Z,410.42
2023-02-28T18:46:44.579Z,337.08
2023-02-28T18:49:47.896Z,294.17
2023-02-28T18:52:51.404Z,282.38
2023-02-28T18:55:54.879Z,287.48
2023-02-28T18:58:58.150Z,265.80
2023-02-28T19:02:02.783Z,279.38
2023-02-28T19:05:06.836Z,277.13
2023-02-28T19:08:10.275Z,282.10
2023-02-28T19:11:15.723Z,267.48
2023-02-28T19:14:20.238Z,280.80
2023-02-28T19:17:24.944Z,328.95
2023-02-28T19:20:28.069Z,282.17
2023-02-28T19:23:33.782Z,345.83
2023-02-28T19:26:37.636Z,547.72
2023-02-28T19:29:58.940Z,626.65
2023-02-28T19:33:03.602Z,584.03
2023-02-28T19:36:07.511Z,607.60
2023-02-28T19:39:10.840Z,614.58
2023-02-28T19:42:15.732Z,613.55
2023-02-28T19:45:19.034Z,622.97
2023-02-28T19:48:27.971Z,627.47
2023-02-28T19:51:31.641Z,505.70
2023-02-28T19:54:35.611Z,489.17
2023-02-28T19:57:39.127Z,453.92
2023-02-28T20:00:42.665Z,405.55
2023-02-28T20:03:50.982Z,468.92
2023-02-28T20:06:54.662Z,394.70
2023-02-28T20:09:57.975Z,370.45
2023-02-28T20:13:01.216Z,339.33
2023-02-28T20:16:07.182Z,353.55
2023-02-28T20:19:12.679Z,357.50
2023-02-28T20:22:15.927Z,338.80
2023-02-28T20:25:19.317Z,339.85
2023-02-28T20:28:22.676Z,336.45
2023-02-28T20:31:28.985Z,332.80
2023-02-28T20:34:33.895Z,326.10
2023-02-28T20:37:37.293Z,310.98
2023-02-28T20:40:40.811Z,267.55
2023-02-28T20:43:44.281Z,597.28
2023-02-28T20:46:48.055Z,387.38
2023-02-28T20:49:52.842Z,366.83
2023-02-28T20:52:57.203Z,414.13
2023-02-28T20:56:05.316Z,419.15
2023-02-28T20:59:11.398Z,398.58
2023-02-28T21:02:17.314Z,401.52
2023-02-28T21:05:22.683Z,416.33
2023-02-28T21:08:26.100Z,395.42
2023-02-28T21:11:31.567Z,399.55
2023-02-28T21:14:35.163Z,340.23
2023-02-28T21:17:38.632Z,342.73
2023-02-28T21:20:46.084Z,319.83
2023-02-28T21:23:50.032Z,323.45
2023-02-28T21:26:54.044Z,341.02
2023-02-28T21:29:57.689Z,294.20
2023-02-28T21:33:01.280Z,297.33
2023-02-28T21:36:08.557Z,276.92
2023-02-28T21:39:16.742Z,294.95
2023-02-28T21:42:20.590Z,284.23
2023-02-28T21:45:24.051Z,290.23
2023-02-28T21:48:27.533Z,289.38
2023-02-28T21:51:33.098Z,299.17
2023-02-28T21:54:36.481Z,278.63
2023-02-28T21:57:40.604Z,292.92
2023-02-28T22:00:45.966Z,286.02
2023-02-28T22:03:50.707Z,289.65
2023-02-28T22:06:57.451Z,278.98
2023-02-28T22:10:01.544Z,278.55
2023-02-28T22:13:05.845Z,283.98
2023-02-28T22:16:11.854Z,298.38
2023-02-28T22:19:15.166Z,332.63
2023-02-28T22:22:19.762Z,289.30
2023-02-28T22:25:24.895Z,305.85
2023-02-28T22:28:30.055Z,289.27
2023-02-28T22:31:35.627Z,267.85
2023-02-28T22:34:39.170Z,262.98
2023-02-28T22:37:43.834Z,259.60
2023-02-28T22:40:47.362Z,255.32
2023-02-28T22:43:54.262Z,248.43
2023-02-28T22:46:57.601Z,239.07
2023-02-28T22:50:00.821Z,238.85
2023-02-28T22:53:05.469Z,218.55
2023-02-28T22:56:10.122Z,214.23
2023-02-28T22:59:15.669Z,205.98
2023-02-28T23:02:18.940Z,198.50
2023-02-28T23:05:22.604Z,190.13
2023-02-28T23:08:27.303Z,186.65
2023-02-28T23:11:33.288Z,180.20
2023-02-28T23:14:36.517Z,170.82
2023-02-28T23:17:39.844Z,159.38
2023-02-28T23:20:43.191Z,165.57
2023-02-28T23:23:47.786Z,157.05
2023-02-28T23:26:53.710Z,161.15
2023-02-28T23:29:56.900Z,156.60
2023-02-28T23:33:00.214Z,153.80
2023-02-28T23:36:11.500Z,155.50
2023-02-28T23:39:18.322Z,155.10
2023-02-28T23:42:21.535Z,155.40
2023-02-28T23:45:24.771Z,146.23
2023-02-28T23:48:28.683Z,152.55
2023-02-28T23:51:31.936Z,138.32
2023-02-28T23:54:36.759Z,152.35
2023-02-28T23:57:40.070Z,147.02
